Time;durP1;ratioP1;P1;durP2;ratioP2;P2;SDS_P1;SDS_P2;PMS_P1;PMS_P2;Temp;Humidity;BMP_temperature;BMP_pressure;BME280_temperature;BME280_humidity;BME280_pressure;Samples;Min_cycle;Max_cycle;Signal;HPM_P1;HPM_P2
2024/03/16 00:00:09;;;;;;;2.90;2.40;;;14.10;99.90;;;;;;4907378;29;20435;-27
2024/03/16 00:02:36;;;;;;;3.50;2.37;;;14.10;99.90;;;;;;4925192;29;20588;-27
2024/03/16 00:05:02;;;;;;;3.30;2.17;;;14.10;99.90;;;;;;4924825;29;20471;-25
2024/03/16 00:07:28;;;;;;;3.67;2.40;;;14.10;99.90;;;;;;4907910;29;20500;-26
2024/03/16 00:09:54;;;;;;;3.60;2.07;;;13.90;99.90;;;;;;4892457;29;20464;-29
2024/03/16 00:12:21;;;;;;;2.83;1.90;;;14.00;99.90;;;;;;4907752;29;20444;-26
2024/03/16 00:14:51;;;;;;;2.30;2.10;;;14.00;99.90;;;;;;4925737;29;20421;-28
2024/03/16 00:17:17;;;;;;;4.00;2.00;;;14.00;99.90;;;;;;4908852;29;21065;-27
2024/03/16 00:19:46;;;;;;;3.70;2.27;;;14.00;99.90;;;;;;4924073;29;20550;-26
2024/03/16 00:22:12;;;;;;;2.10;1.80;;;14.00;99.90;;;;;;4922800;29;20436;-26
2024/03/16 00:24:38;;;;;;;2.30;1.97;;;14.00;99.90;;;;;;4905879;29;20762;-25
2024/03/16 00:27:07;;;;;;;2.83;2.20;;;14.00;99.90;;;;;;4904556;29;20454;-27
2024/03/16 00:29:33;;;;;;;3.83;1.80;;;14.00;99.90;;;;;;4923350;29;20843;-25
2024/03/16 00:32:00;;;;;;;4.43;2.10;;;14.00;99.90;;;;;;4922805;29;20432;-26
2024/03/16 00:34:26;;;;;;;2.43;2.00;;;14.00;99.90;;;;;;4922690;29;20440;-26
2024/03/16 00:36:52;;;;;;;2.77;1.90;;;14.00;99.90;;;;;;4926119;29;20901;-25
2024/03/16 00:39:23;;;;;;;3.03;2.00;;;13.90;99.90;;;;;;4905965;29;20464;-26
2024/03/16 00:41:49;;;;;;;2.27;1.90;;;14.00;99.90;;;;;;4922896;29;20806;-25
2024/03/16 00:44:17;;;;;;;2.90;1.90;;;13.80;99.90;;;;;;4922842;29;20486;-26
2024/03/16 00:46:46;;;;;;;3.40;2.33;;;14.00;99.90;;;;;;4909083;29;20530;-24
2024/03/16 00:49:12;;;;;;;3.13;1.90;;;13.90;99.90;;;;;;4922777;29;20452;-26
2024/03/16 00:51:39;;;;;;;2.33;1.90;;;13.90;99.90;;;;;;4922975;29;20519;-25
2024/03/16 00:54:04;;;;;;;1.97;1.77;;;13.90;99.90;;;;;;4922871;29;21270;-27
2024/03/16 00:56:33;;;;;;;2.63;1.70;;;13.90;99.90;;;;;;4906521;29;20536;-25
2024/03/16 00:58:59;;;;;;;2.77;2.17;;;13.90;99.90;;;;;;4922649;29;20452;-26
2024/03/16 01:01:29;;;;;;;2.60;1.63;;;13.90;99.90;;;;;;4920866;29;20557;-26
2024/03/16 01:03:55;;;;;;;4.33;1.90;;;14.00;99.90;;;;;;4919231;29;20562;-25
2024/03/16 01:06:21;;;;;;;3.00;2.20;;;13.90;99.90;;;;;;4922156;29;20440;-25
2024/03/16 01:08:49;;;;;;;3.47;2.23;;;13.90;99.90;;;;;;4905611;29;20451;-26
2024/03/16 01:11:24;;;;;;;3.63;1.87;;;13.90;99.90;;;;;;4922631;29;20429;-26
2024/03/16 01:13:53;;;;;;;3.67;1.80;;;13.90;99.90;;;;;;4905193;29;20442;-26
2024/03/16 01:16:20;;;;;;;3.30;1.90;;;13.90;99.90;;;;;;4923557;29;20612;-26
2024/03/16 01:18:46;;;;;;;3.23;1.70;;;13.90;99.90;;;;;;4922273;29;20479;-28
2024/03/16 01:21:12;;;;;;;4.73;2.20;;;13.90;99.90;;;;;;4922107;29;20421;-26
2024/03/16 01:23:41;;;;;;;1.97;1.80;;;13.90;99.90;;;;;;4890105;29;21014;-25
2024/03/16 01:26:09;;;;;;;5.50;1.90;;;13.80;99.90;;;;;;4921703;29;20640;-26
2024/03/16 01:28:35;;;;;;;2.53;1.80;;;13.90;99.90;;;;;;4905018;29;20429;-26
2024/03/16 01:31:02;;;;;;;1.93;1.67;;;13.80;99.90;;;;;;4920784;29;20436;-26
2024/03/16 01:33:28;;;;;;;4.70;2.13;;;13.80;99.90;;;;;;4904352;29;20424;-25
2024/03/16 01:35:54;;;;;;;3.87;1.80;;;13.80;99.90;;;;;;4926194;28;21030;-25
2024/03/16 01:38:20;;;;;;;3.37;1.60;;;13.80;99.90;;;;;;4922144;29;20460;-26
2024/03/16 01:40:48;;;;;;;4.30;2.13;;;13.80;99.90;;;;;;4922050;29;20906;-26
2024/03/16 01:43:17;;;;;;;3.40;2.10;;;13.80;99.90;;;;;;4922210;29;20437;-24
2024/03/16 01:45:43;;;;;;;4.70;2.00;;;13.80;99.90;;;;;;4922073;29;20528;-27
2024/03/16 01:48:10;;;;;;;3.50;2.00;;;13.80;99.90;;;;;;4905621;29;20436;-25
2024/03/16 01:50:40;;;;;;;5.00;2.20;;;13.80;99.90;;;;;;4904387;29;20464;-25
2024/03/16 01:53:12;;;;;;;4.23;2.30;;;13.80;99.90;;;;;;4903861;29;20470;-26
2024/03/16 01:55:40;;;;;;;1.63;1.53;;;13.80;99.90;;;;;;4919772;29;20525;-25
2024/03/16 01:58:06;;;;;;;3.27;2.00;;;13.80;99.90;;;;;;4923626;29;20428;-25
2024/03/16 02:00:35;;;;;;;2.53;1.83;;;13.80;99.90;;;;;;4921419;29;20421;-26
2024/03/16 02:03:02;;;;;;;4.10;2.43;;;13.80;99.90;;;;;;4921202;29;21058;-26
2024/03/16 02:05:29;;;;;;;2.13;1.93;;;13.80;99.90;;;;;;4921397;29;21241;-25
2024/03/16 02:07:59;;;;;;;3.43;2.00;;;13.70;99.90;;;;;;4922343;29;21103;-25
2024/03/16 02:10:25;;;;;;;2.23;1.93;;;13.80;99.90;;;;;;4904273;29;20452;-27
2024/03/16 02:12:51;;;;;;;2.83;1.70;;;13.70;99.90;;;;;;4920536;29;20429;-25
2024/03/16 02:15:23;;;;;;;6.27;2.27;;;13.80;99.90;;;;;;4903851;29;20440;-24
2024/03/16 02:17:50;;;;;;;3.17;1.53;;;13.80;99.90;;;;;;4922187;29;20452;-25
2024/03/16 02:20:16;;;;;;;3.83;1.63;;;13.80;99.90;;;;;;4921363;29;20438;-25
2024/03/16 02:22:43;;;;;;;5.13;2.03;;;13.70;99.90;;;;;;4904356;29;20475;-26
2024/03/16 02:25:12;;;;;;;2.50;2.30;;;13.70;99.90;;;;;;4905265;29;20468;-25
2024/03/16 02:27:40;;;;;;;4.30;1.93;;;13.80;99.90;;;;;;4924510;29;20455;-24
2024/03/16 02:30:37;;;;;;;5.27;1.93;;;13.70;99.90;;;;;;4925504;29;21244;-26
2024/03/16 02:33:09;;;;;;;3.23;2.17;;;13.70;99.90;;;;;;4908305;29;21079;-25
2024/03/16 02:35:38;;;;;;;2.00;1.80;;;13.70;99.90;;;;;;4925302;29;20446;-25
2024/03/16 02:38:09;;;;;;;4.80;1.80;;;13.70;99.90;;;;;;4922824;29;20443;-24
2024/03/16 02:40:36;;;;;;;6.70;2.27;;;13.70;99.90;;;;;;4922112;29;20467;-27
2024/03/16 02:43:04;;;;;;;4.30;1.87;;;13.70;99.90;;;;;;4903011;29;20444;-29
2024/03/16 02:45:31;;;;;;;3.90;1.80;;;13.70;99.90;;;;;;4907079;29;20890;-27
2024/03/16 02:47:58;;;;;;;1.83;1.53;;;13.70;99.90;;;;;;4924363;29;20428;-26
2024/03/16 02:50:27;;;;;;;3.60;2.07;;;13.60;99.90;;;;;;4925278;29;20444;-32
2024/03/16 02:52:53;;;;;;;4.20;2.13;;;13.70;99.90;;;;;;4891236;29;20487;-28
2024/03/16 02:55:19;;;;;;;6.60;2.00;;;13.60;99.90;;;;;;4898014;29;20443;-29
2024/03/16 02:57:45;;;;;;;5.40;2.57;;;13.70;99.90;;;;;;4907002;29;20456;-29
2024/03/16 03:00:12;;;;;;;2.90;1.87;;;13.60;99.90;;;;;;4895703;29;20447;-27
2024/03/16 03:02:40;;;;;;;2.80;2.10;;;13.60;99.90;;;;;;4906827;29;21021;-26
2024/03/16 03:05:10;;;;;;;4.20;2.00;;;13.60;99.90;;;;;;4923869;29;20916;-29
2024/03/16 03:07:38;;;;;;;4.70;2.60;;;13.60;99.90;;;;;;4921845;29;20571;-32
2024/03/16 03:10:08;;;;;;;3.57;1.97;;;13.60;99.90;;;;;;4909589;29;21184;-28
2024/03/16 03:12:35;;;;;;;4.00;1.93;;;13.60;99.90;;;;;;4923105;29;20475;-31
2024/03/16 03:15:04;;;;;;;3.73;2.17;;;13.60;99.90;;;;;;4907440;29;20825;-28
2024/03/16 03:17:33;;;;;;;3.33;2.10;;;13.60;99.90;;;;;;4907247;29;20475;-27
2024/03/16 03:20:05;;;;;;;2.80;1.93;;;13.60;99.90;;;;;;4924150;29;20455;-28
2024/03/16 03:22:32;;;;;;;3.43;1.90;;;13.60;99.90;;;;;;4906716;29;20452;-29
2024/03/16 03:24:58;;;;;;;6.43;1.87;;;13.60;99.90;;;;;;4923870;29;20511;-28
2024/03/16 03:27:24;;;;;;;4.83;2.10;;;13.60;99.90;;;;;;4906970;29;20486;-31
2024/03/16 03:29:50;;;;;;;4.10;2.10;;;13.60;99.90;;;;;;4924129;29;20947;-30
2024/03/16 03:32:19;;;;;;;2.97;2.00;;;13.60;99.90;;;;;;4922981;29;20428;-29
2024/03/16 03:37:36;;;;;;;2.30;2.10;;;13.60;99.90;;;;;;4907503;29;20468;-29
2024/03/16 03:40:03;;;;;;;2.97;1.80;;;13.60;99.90;;;;;;4924672;29;20576;-30
2024/03/16 03:42:33;;;;;;;7.20;2.70;;;13.60;99.90;;;;;;4905464;29;20437;-26
2024/03/16 03:45:11;;;;;;;7.60;2.37;;;13.50;99.90;;;;;;4906359;29;20604;-29
2024/03/16 03:50:28;;;;;;;2.13;1.97;;;13.50;99.90;;;;;;4909627;29;20531;-29
2024/03/16 03:52:55;;;;;;;7.50;2.30;;;13.60;99.90;;;;;;4921994;29;20424;-29
2024/03/16 03:55:22;;;;;;;2.60;2.20;;;13.50;99.90;;;;;;4905421;29;21181;-30
2024/03/16 03:57:48;;;;;;;2.90;2.03;;;13.50;99.90;;;;;;4923004;29;20444;-29
2024/03/16 04:00:18;;;;;;;2.90;2.10;;;13.50;99.90;;;;;;4923255;29;20431;-29
2024/03/16 04:02:46;;;;;;;7.00;2.50;;;13.50;99.90;;;;;;4926300;29;20966;-29
2024/03/16 04:05:15;;;;;;;3.37;2.80;;;13.50;99.90;;;;;;4905611;29;20487;-29
2024/03/16 04:07:41;;;;;;;4.80;2.90;;;13.50;99.90;;;;;;4923503;29;21350;-27
2024/03/16 04:10:07;;;;;;;3.47;2.90;;;13.50;99.90;;;;;;4923431;29;20443;-28
2024/03/16 04:12:34;;;;;;;5.73;2.90;;;13.50;99.90;;;;;;4907101;29;20535;-27
2024/03/16 04:15:00;;;;;;;7.63;2.73;;;13.50;99.90;;;;;;4906921;29;20447;-29
2024/03/16 04:17:30;;;;;;;5.57;3.17;;;13.50;99.90;;;;;;4906443;29;20819;-27
2024/03/16 04:19:57;;;;;;;4.03;2.50;;;13.50;99.90;;;;;;4890150;29;20464;-30
2024/03/16 04:22:24;;;;;;;4.10;2.90;;;13.50;99.90;;;;;;4892965;29;20947;-30
2024/03/16 04:24:52;;;;;;;8.27;2.80;;;13.50;99.90;;;;;;4900308;29;20479;-30
2024/03/16 04:27:18;;;;;;;5.67;3.13;;;13.50;99.90;;;;;;4922938;29;20448;-30
2024/03/16 04:29:48;;;;;;;5.10;2.67;;;13.50;99.90;;;;;;4905478;29;20867;-29
2024/03/16 04:32:17;;;;;;;5.87;3.00;;;13.50;99.90;;;;;;4908255;29;20439;-29
2024/03/16 04:35:34;;;;;;;4.20;2.80;;;13.50;99.90;;;;;;4905871;29;20428;-32
2024/03/16 04:38:01;;;;;;;6.20;2.87;;;13.40;99.90;;;;;;4904735;29;20491;-26
2024/03/16 04:40:29;;;;;;;5.33;2.47;;;13.50;99.90;;;;;;4921872;29;20425;-31
2024/03/16 04:42:55;;;;;;;4.53;2.60;;;13.40;99.90;;;;;;4905524;29;20462;-26
2024/03/16 04:45:21;;;;;;;4.77;3.50;;;13.40;99.90;;;;;;4905094;29;20507;-29
2024/03/16 04:47:47;;;;;;;4.27;2.47;;;13.40;99.90;;;;;;4904745;29;20893;-26
2024/03/16 04:50:15;;;;;;;5.00;4.13;;;13.40;99.90;;;;;;4921597;29;20467;-28
2024/03/16 04:52:45;;;;;;;7.50;3.77;;;13.40;99.90;;;;;;4923574;29;20835;-28
2024/03/16 04:55:11;;;;;;;3.80;2.87;;;13.40;99.90;;;;;;4905269;29;20452;-28
2024/03/16 04:57:40;;;;;;;7.40;3.03;;;13.40;99.90;;;;;;4908010;29;21055;-31
2024/03/16 05:00:11;;;;;;;7.33;3.23;;;13.40;99.90;;;;;;4921754;29;20507;-26
2024/03/16 05:02:37;;;;;;;6.70;3.63;;;13.40;99.90;;;;;;4906079;29;20452;-31
2024/03/16 05:05:08;;;;;;;8.50;4.00;;;13.40;99.90;;;;;;4920334;29;20575;-27
2024/03/16 05:07:38;;;;;;;6.93;3.13;;;13.40;99.90;;;;;;4921927;29;20445;-28
2024/03/16 05:10:08;;;;;;;3.77;2.83;;;13.40;99.90;;;;;;4922095;29;20463;-30
2024/03/16 05:12:36;;;;;;;5.70;3.40;;;13.40;99.90;;;;;;4866147;29;20456;-29
2024/03/16 05:15:03;;;;;;;4.47;3.30;;;13.40;99.90;;;;;;4907256;29;20431;-31
2024/03/16 05:17:31;;;;;;;4.80;3.97;;;13.40;99.90;;;;;;4914142;29;20985;-29
2024/03/16 05:19:57;;;;;;;6.03;3.23;;;13.40;99.90;;;;;;4922270;29;20444;-30
2024/03/16 05:22:23;;;;;;;4.70;3.70;;;13.40;99.90;;;;;;4922663;29;20463;-27
2024/03/16 05:24:49;;;;;;;7.17;4.27;;;13.40;99.90;;;;;;4904469;29;20480;-28
2024/03/16 05:27:16;;;;;;;6.43;4.30;;;13.40;99.90;;;;;;4924333;29;20454;-29
2024/03/16 05:29:42;;;;;;;6.13;4.20;;;13.40;99.90;;;;;;4904881;29;20431;-27
2024/03/16 05:32:08;;;;;;;7.13;3.70;;;13.40;99.90;;;;;;4897220;29;20417;-27
2024/03/16 05:34:35;;;;;;;6.60;4.23;;;13.40;99.90;;;;;;4904682;29;20433;-28
2024/03/16 05:37:01;;;;;;;8.23;4.60;;;13.40;99.90;;;;;;4930919;23;20550;-24
2024/03/16 05:39:27;;;;;;;5.27;4.10;;;13.20;99.90;;;;;;4912766;29;20535;-24
2024/03/16 05:41:53;;;;;;;6.60;3.90;;;13.40;99.90;;;;;;4922657;29;20575;-26
2024/03/16 05:44:19;;;;;;;5.87;4.13;;;13.40;99.90;;;;;;4919524;29;20228;-27
2024/03/16 05:46:48;;;;;;;6.87;3.97;;;13.40;99.90;;;;;;4922615;29;20499;-25
2024/03/16 05:49:14;;;;;;;5.73;4.40;;;13.40;99.90;;;;;;4920345;29;20810;-26
2024/03/16 05:51:40;;;;;;;4.67;4.00;;;13.40;99.90;;;;;;4922517;29;20428;-26
2024/03/16 05:54:06;;;;;;;6.87;5.00;;;13.40;99.90;;;;;;4923677;29;20451;-26
2024/03/16 05:56:32;;;;;;;4.67;3.67;;;13.30;99.90;;;;;;4921943;29;21320;-26
2024/03/16 05:59:00;;;;;;;5.43;4.10;;;13.30;99.90;;;;;;4926885;29;20439;-24
2024/03/16 06:01:27;;;;;;;5.30;4.00;;;13.30;99.90;;;;;;4908793;29;20450;-26
2024/03/16 06:03:53;;;;;;;9.10;4.23;;;13.30;99.90;;;;;;4898979;29;20435;-26
2024/03/16 06:06:21;;;;;;;6.90;4.20;;;13.30;99.90;;;;;;4922819;29;21573;-25
2024/03/16 06:08:47;;;;;;;6.03;4.10;;;13.30;99.90;;;;;;4922654;29;20433;-27
2024/03/16 06:11:13;;;;;;;5.07;3.80;;;13.30;99.90;;;;;;4921799;29;20454;-24
2024/03/16 06:13:39;;;;;;;5.57;4.20;;;13.30;99.90;;;;;;4920718;29;20593;-26
2024/03/16 06:16:07;;;;;;;5.33;4.33;;;13.30;99.90;;;;;;4921595;29;20467;-27
2024/03/16 06:18:39;;;;;;;4.33;3.90;;;13.30;99.90;;;;;;4925102;29;20951;-26
2024/03/16 06:21:08;;;;;;;7.33;3.73;;;13.30;99.90;;;;;;4927057;29;20840;-26
2024/03/16 06:23:34;;;;;;;8.03;3.80;;;13.30;99.90;;;;;;4924359;29;20454;-26
2024/03/16 06:26:05;;;;;;;5.30;3.80;;;13.30;99.90;;;;;;4924962;29;20475;-26
2024/03/16 06:28:37;;;;;;;5.23;3.90;;;13.20;99.90;;;;;;4919739;29;21295;-26
2024/03/16 06:31:09;;;;;;;5.97;4.30;;;13.20;99.90;;;;;;4910127;29;21151;-26
2024/03/16 06:33:36;;;;;;;4.53;4.13;;;13.20;99.90;;;;;;4907679;29;20487;-25
2024/03/16 06:36:03;;;;;;;5.23;4.17;;;13.20;99.90;;;;;;4924637;29;20456;-27
2024/03/16 06:38:31;;;;;;;5.50;3.83;;;13.20;99.90;;;;;;4876095;29;20448;-25
2024/03/16 06:40:57;;;;;;;4.03;3.63;;;13.20;99.90;;;;;;4924812;29;20440;-26
2024/03/16 06:43:26;;;;;;;3.60;3.30;;;13.20;99.90;;;;;;4922624;29;20479;-27
2024/03/16 06:45:54;;;;;;;3.93;3.57;;;13.20;99.90;;;;;;4924523;29;20511;-25
2024/03/16 06:48:20;;;;;;;4.97;3.70;;;13.20;99.90;;;;;;4922994;29;20444;-25
2024/03/16 06:50:48;;;;;;;3.73;3.43;;;13.20;99.90;;;;;;4921336;29;20428;-25
2024/03/16 06:53:16;;;;;;;5.33;3.80;;;13.20;99.90;;;;;;4923719;29;20424;-26
2024/03/16 06:55:54;;;;;;;4.27;3.50;;;13.20;99.90;;;;;;4927693;28;20810;-27
2024/03/16 06:58:24;;;;;;;6.20;4.37;;;13.20;99.90;;;;;;4918469;29;20459;-25
2024/03/16 07:00:50;;;;;;;5.53;3.60;;;13.20;99.90;;;;;;4888427;29;20444;-26
2024/03/16 07:03:19;;;;;;;5.00;3.73;;;13.20;99.90;;;;;;4921691;29;20547;-25
2024/03/16 07:05:49;;;;;;;3.67;3.23;;;13.20;99.90;;;;;;4922108;28;21073;-27
2024/03/16 07:08:17;;;;;;;4.40;3.97;;;13.20;99.90;;;;;;4920372;29;20482;-26
2024/03/16 07:10:46;;;;;;;4.10;3.60;;;13.20;99.90;;;;;;4924701;29;20454;-26
2024/03/16 07:13:12;;;;;;;4.33;3.50;;;13.20;99.90;;;;;;4919995;29;21325;-25
2024/03/16 07:15:39;;;;;;;9.23;3.47;;;13.10;99.90;;;;;;4907484;29;20424;-25
2024/03/16 07:18:05;;;;;;;6.90;3.37;;;13.20;99.90;;;;;;4907282;29;20446;-27
2024/03/16 07:20:34;;;;;;;6.33;3.33;;;13.10;99.90;;;;;;4927699;29;21138;-25
2024/03/16 11:36:25;;;;;;;4.33;2.20;;;12.90;99.90;;;;;;5129568;22;278754;-29
2024/03/16 11:38:52;;;;;;;9.80;2.10;;;12.90;99.90;;;;;;5098928;28;20979;-24
2024/03/16 11:41:24;;;;;;;5.13;2.00;;;12.90;99.90;;;;;;5096762;28;20459;-29
2024/03/16 11:43:53;;;;;;;3.50;2.13;;;12.90;99.90;;;;;;5116735;28;20437;-26
2024/03/16 11:46:20;;;;;;;3.83;1.70;;;12.90;99.90;;;;;;5115316;28;20449;-29
2024/03/16 11:48:46;;;;;;;4.50;2.20;;;12.90;99.90;;;;;;5115914;28;20419;-28
2024/03/16 11:51:13;;;;;;;3.33;2.00;;;12.90;99.90;;;;;;5096842;28;20490;-26
2024/03/16 11:53:42;;;;;;;3.50;1.90;;;12.90;99.90;;;;;;5115103;28;20424;-28
2024/03/16 11:56:14;;;;;;;2.80;1.93;;;12.90;99.90;;;;;;5116334;28;20518;-27
2024/03/16 11:58:41;;;;;;;3.83;1.70;;;12.90;99.90;;;;;;5097605;28;20442;-25
2024/03/16 12:01:15;;;;;;;2.93;1.87;;;12.90;99.90;;;;;;5080829;28;20415;-28
2024/03/16 12:03:42;;;;;;;3.00;1.60;;;12.90;99.90;;;;;;5115488;28;20411;-28
2024/03/16 12:06:12;;;;;;;2.23;1.60;;;12.90;99.90;;;;;;5116258;28;20974;-28
2024/03/16 12:08:41;;;;;;;15.50;1.80;;;12.90;98.80;;;;;;5114670;28;20419;-25
2024/03/16 12:11:08;;;;;;;9.20;2.80;;;12.80;97.70;;;;;;5080706;28;20428;-25
2024/03/16 12:13:35;;;;;;;9.40;2.37;;;12.80;97.80;;;;;;5121233;28;20462;-24
2024/03/16 12:16:05;;;;;;;10.90;2.07;;;12.80;98.20;;;;;;5099962;28;20435;-28
2024/03/16 12:18:32;;;;;;;9.80;2.27;;;12.80;98.70;;;;;;5099619;28;20439;-25
2024/03/16 12:20:58;;;;;;;10.37;1.80;;;12.80;99.00;;;;;;5116342;28;20443;-27
2024/03/16 12:23:30;;;;;;;10.80;2.20;;;12.80;99.10;;;;;;5093116;28;20476;-25
2024/03/16 12:25:59;;;;;;;8.17;3.83;;;12.80;99.30;;;;;;5102394;28;20444;-29
2024/03/16 12:28:29;;;;;;;10.33;2.03;;;12.90;99.30;;;;;;5102863;28;20897;-28
2024/03/16 12:31:00;;;;;;;4.03;2.60;;;12.90;99.50;;;;;;5102537;28;20555;-25
2024/03/16 12:33:29;;;;;;;5.57;2.60;;;12.90;99.50;;;;;;5083536;28;20501;-26
2024/03/16 12:35:55;;;;;;;6.70;2.80;;;12.90;99.40;;;;;;5101725;28;20436;-26
2024/03/16 12:38:21;;;;;;;6.43;2.23;;;12.90;99.40;;;;;;5102459;28;20456;-27
2024/03/16 12:40:47;;;;;;;7.00;2.53;;;12.90;99.30;;;;;;5066870;28;21032;-25
2024/03/16 12:43:16;;;;;;;4.00;2.70;;;12.90;99.40;;;;;;5102425;28;20432;-26
2024/03/16 12:45:46;;;;;;;5.03;2.10;;;12.90;99.40;;;;;;5083821;28;20419;-24
2024/03/16 12:48:13;;;;;;;5.37;2.50;;;12.90;99.50;;;;;;5106360;28;20485;-29
2024/03/16 12:50:41;;;;;;;3.37;2.20;;;12.90;99.70;;;;;;5058527;28;20457;-26
2024/03/16 12:53:09;;;;;;;4.83;2.30;;;12.90;99.80;;;;;;5095013;28;20624;-26
2024/03/16 12:55:36;;;;;;;8.27;2.77;;;12.90;99.70;;;;;;5099352;28;20428;-31
2024/03/16 12:58:02;;;;;;;6.70;2.10;;;13.00;99.80;;;;;;5077684;28;20696;-29
2024/03/16 13:00:29;;;;;;;8.47;2.07;;;13.00;99.80;;;;;;5081053;28;20421;-28
2024/03/16 13:02:55;;;;;;;3.97;2.13;;;13.00;99.90;;;;;;5060695;28;20448;-26
2024/03/16 13:05:58;;;;;;;5.37;2.33;;;13.00;99.90;;;;;;5046853;28;20425;-24
2024/03/16 13:08:28;;;;;;;3.90;2.17;;;13.00;99.90;;;;;;4984987;28;20422;-28
2024/03/16 13:10:57;;;;;;;2.40;2.00;;;13.00;99.90;;;;;;4980388;28;20427;-27
2024/03/16 13:13:23;;;;;;;4.57;1.90;;;13.00;99.90;;;;;;5001859;28;20475;-25
2024/03/16 13:15:49;;;;;;;3.57;2.20;;;13.00;99.60;;;;;;5016628;28;20435;-26
2024/03/16 13:18:15;;;;;;;4.43;2.10;;;13.00;99.30;;;;;;4984221;28;20887;-25
2024/03/16 13:20:41;;;;;;;3.07;1.83;;;13.00;99.20;;;;;;4983349;28;20486;-28
2024/03/16 13:23:07;;;;;;;4.30;2.10;;;13.00;99.20;;;;;;5018524;28;20466;-26
2024/03/16 13:25:38;;;;;;;4.40;1.87;;;13.00;99.30;;;;;;5019243;28;21187;-24
2024/03/16 13:28:05;;;;;;;4.67;1.70;;;13.00;99.30;;;;;;5016629;28;20432;-30
2024/03/16 13:30:31;;;;;;;5.70;1.87;;;13.00;99.10;;;;;;5020434;28;20430;-27
2024/03/16 13:33:00;;;;;;;4.83;1.83;;;13.00;99.10;;;;;;5017196;28;20993;-26
2024/03/16 13:35:26;;;;;;;3.83;2.20;;;13.00;99.20;;;;;;5022050;28;20535;-27
2024/03/16 13:37:52;;;;;;;5.87;1.90;;;13.00;99.10;;;;;;5016120;28;20463;-27
2024/03/16 13:40:19;;;;;;;4.10;2.33;;;13.10;99.20;;;;;;5016229;28;20440;-29
2024/03/16 13:42:48;;;;;;;3.43;2.00;;;13.00;99.10;;;;;;5019945;28;20430;-26
2024/03/16 13:45:14;;;;;;;3.10;1.80;;;13.00;98.80;;;;;;5038937;28;20505;-28
2024/03/16 13:47:41;;;;;;;5.67;1.80;;;13.10;98.80;;;;;;5098100;28;20547;-27
2024/03/16 13:50:08;;;;;;;5.90;2.80;;;13.00;98.80;;;;;;5095219;28;20933;-30
2024/03/16 13:52:34;;;;;;;4.07;2.17;;;13.10;98.80;;;;;;5099598;28;20451;-26
2024/03/16 13:55:07;;;;;;;2.47;1.83;;;13.10;98.80;;;;;;5097779;28;20444;-26
2024/03/16 13:57:33;;;;;;;4.23;1.87;;;13.10;98.50;;;;;;5095969;28;20455;-26
2024/03/16 13:59:59;;;;;;;4.30;2.40;;;13.10;98.60;;;;;;5044709;28;20437;-25
2024/03/16 14:02:25;;;;;;;5.80;2.63;;;13.10;98.70;;;;;;5062236;28;20629;-27
2024/03/16 14:04:51;;;;;;;2.43;1.50;;;13.10;98.40;;;;;;5079973;28;20429;-29
2024/03/16 14:07:18;;;;;;;5.73;2.20;;;13.10;98.20;;;;;;5080637;28;20531;-27
2024/03/16 14:09:47;;;;;;;6.03;2.37;;;13.10;98.20;;;;;;5061562;28;20422;-26
2024/03/16 14:12:13;;;;;;;3.87;2.40;;;13.10;98.30;;;;;;5060382;28;21131;-27
2024/03/16 14:14:45;;;;;;;6.03;1.93;;;13.10;98.30;;;;;;5080000;28;20509;-27
2024/03/16 14:17:11;;;;;;;3.63;2.03;;;13.10;98.40;;;;;;5081096;28;20925;-27
2024/03/16 14:19:37;;;;;;;3.43;1.70;;;13.10;97.90;;;;;;5080273;28;20919;-28
2024/03/16 14:22:03;;;;;;;2.87;1.90;;;13.10;97.90;;;;;;5062060;28;20420;-29
2024/03/16 14:24:29;;;;;;;9.57;2.60;;;13.10;98.00;;;;;;5081436;28;20486;-25
2024/03/16 14:26:57;;;;;;;3.00;1.67;;;13.10;98.00;;;;;;5046052;28;20453;-28
2024/03/16 14:29:23;;;;;;;3.83;1.90;;;13.10;98.20;;;;;;5082348;28;20423;-29
2024/03/16 14:31:50;;;;;;;3.53;1.60;;;13.10;98.30;;;;;;5082430;28;20463;-26
2024/03/16 14:34:18;;;;;;;2.90;1.80;;;13.10;98.10;;;;;;5064687;28;20456;-26
2024/03/16 14:36:45;;;;;;;5.20;3.60;;;13.20;98.30;;;;;;5064505;28;20831;-26
2024/03/16 14:39:13;;;;;;;3.33;1.83;;;13.10;98.40;;;;;;5066647;28;20179;-28
2024/03/16 14:41:42;;;;;;;2.93;1.93;;;13.20;98.50;;;;;;5065244;28;20445;-29
2024/03/16 14:44:08;;;;;;;6.67;2.00;;;13.20;98.40;;;;;;5066370;28;20445;-30
2024/03/16 14:46:36;;;;;;;5.27;2.20;;;13.20;98.60;;;;;;5063012;28;20436;-25
2024/03/16 14:49:03;;;;;;;4.37;2.10;;;13.20;98.50;;;;;;5094496;28;20971;-28
2024/03/16 14:51:31;;;;;;;3.50;2.20;;;13.20;98.50;;;;;;5098338;28;20444;-32
2024/03/16 14:53:57;;;;;;;4.80;2.17;;;13.20;98.40;;;;;;5099147;28;20839;-30
2024/03/16 14:56:23;;;;;;;3.37;2.47;;;13.20;98.40;;;;;;5095584;28;20495;-26
2024/03/16 14:58:50;;;;;;;3.50;2.20;;;13.20;98.50;;;;;;5077452;28;20507;-27
2024/03/16 15:01:16;;;;;;;2.53;2.10;;;13.20;98.60;;;;;;5079976;28;20542;-31
2024/03/16 15:03:42;;;;;;;5.93;2.60;;;13.20;98.60;;;;;;5082481;28;20447;-30
2024/03/16 15:06:09;;;;;;;3.00;1.73;;;13.20;98.40;;;;;;5067826;28;20444;-28
2024/03/16 15:08:36;;;;;;;4.70;2.20;;;13.10;97.80;;;;;;5088301;28;20473;-28
2024/03/16 15:11:07;;;;;;;3.80;2.70;;;13.10;97.70;;;;;;5083067;28;20522;-24
2024/03/16 15:13:33;;;;;;;11.13;2.80;;;13.10;97.80;;;;;;5078482;28;20487;-25
2024/03/16 15:15:59;;;;;;;4.20;2.30;;;13.10;98.10;;;;;;5078743;28;20444;-26
2024/03/16 15:18:32;;;;;;;4.77;2.50;;;13.10;98.00;;;;;;5059156;28;20474;-28
2024/03/16 15:20:58;;;;;;;4.27;2.40;;;13.10;97.90;;;;;;5091341;28;20431;-29
2024/03/16 15:23:26;;;;;;;7.50;2.53;;;13.10;97.90;;;;;;5078569;28;21322;-28
2024/03/16 15:26:19;;;;;;;5.13;2.10;;;13.10;97.80;;;;;;5087642;28;20578;-23
2024/03/16 15:28:53;;;;;;;3.00;2.30;;;13.10;97.70;;;;;;5095781;28;20508;-27
2024/03/16 15:31:22;;;;;;;4.57;2.37;;;13.10;97.80;;;;;;5098056;28;20459;-26
2024/03/16 15:33:48;;;;;;;2.10;1.90;;;13.10;97.80;;;;;;5062742;28;21104;-25
2024/03/16 15:36:14;;;;;;;3.20;1.50;;;13.10;97.80;;;;;;5062076;28;20873;-25
2024/03/16 15:38:42;;;;;;;3.30;2.20;;;13.10;97.80;;;;;;5078397;28;20444;-25
2024/03/16 15:41:08;;;;;;;2.00;1.80;;;13.10;97.70;;;;;;5096980;28;20451;-27
2024/03/16 15:43:36;;;;;;;4.03;1.90;;;13.10;97.40;;;;;;5045670;28;20497;-28
2024/03/16 15:46:02;;;;;;;5.03;2.07;;;13.10;97.50;;;;;;5075231;28;21080;-26
2024/03/16 15:48:28;;;;;;;3.50;1.90;;;13.10;97.40;;;;;;5097591;28;20428;-25
2024/03/16 15:50:54;;;;;;;2.90;1.73;;;13.10;97.40;;;;;;5093695;28;20442;-25
2024/03/16 15:53:20;;;;;;;2.20;1.87;;;13.10;97.20;;;;;;5078873;28;20507;-27
2024/03/16 15:55:48;;;;;;;2.90;1.93;;;13.10;97.20;;;;;;5096554;28;20925;-26
2024/03/16 15:58:16;;;;;;;3.63;2.17;;;13.10;96.90;;;;;;5097300;28;20832;-25
2024/03/16 16:00:42;;;;;;;2.60;1.63;;;13.20;96.80;;;;;;5100130;28;20516;-25
2024/03/16 16:03:08;;;;;;;2.83;1.80;;;13.10;96.30;;;;;;5099471;28;20443;-26
2024/03/16 16:05:35;;;;;;;4.70;2.20;;;13.10;96.10;;;;;;5100351;28;21843;-25
2024/03/16 16:08:00;;;;;;;3.00;2.03;;;13.10;96.10;;;;;;5064991;28;20428;-26
2024/03/16 16:10:26;;;;;;;3.33;2.00;;;13.10;96.20;;;;;;5055524;28;20455;-28
2024/03/16 16:12:53;;;;;;;2.20;2.00;;;13.10;96.20;;;;;;5099693;28;20603;-27
2024/03/16 16:15:22;;;;;;;3.40;1.60;;;13.10;96.80;;;;;;5082314;28;20428;-25
2024/03/16 16:17:48;;;;;;;3.10;1.87;;;13.10;96.40;;;;;;5081366;28;20456;-25
2024/03/16 16:20:18;;;;;;;2.57;1.80;;;13.10;95.90;;;;;;5100952;28;21021;-25
2024/03/16 16:22:49;;;;;;;4.77;1.93;;;13.10;95.80;;;;;;5100279;28;20416;-27
2024/03/16 16:25:15;;;;;;;3.93;1.70;;;13.10;95.60;;;;;;5100401;28;20511;-27
2024/03/16 16:27:44;;;;;;;3.57;1.87;;;13.10;95.80;;;;;;5095488;28;20985;-28
2024/03/16 16:30:10;;;;;;;4.10;1.80;;;13.10;95.50;;;;;;5082106;28;20836;-25
2024/03/16 16:32:38;;;;;;;6.60;1.80;;;13.10;94.90;;;;;;5100032;28;20468;-26
2024/03/16 16:35:07;;;;;;;3.27;1.53;;;13.10;95.20;;;;;;5065113;28;20441;-28
2024/03/16 16:37:34;;;;;;;3.27;1.53;;;13.10;94.80;;;;;;5099979;28;20820;-27
2024/03/16 16:40:04;;;;;;;4.10;1.53;;;13.20;94.60;;;;;;5080720;28;20898;-26
2024/03/16 16:42:31;;;;;;;3.00;1.60;;;13.20;94.70;;;;;;5080728;28;20434;-26
2024/03/16 16:45:02;;;;;;;3.13;1.57;;;13.20;94.40;;;;;;5080364;28;20443;-25
2024/03/16 16:47:29;;;;;;;1.73;1.43;;;13.20;93.80;;;;;;5045056;28;20444;-28
2024/03/16 16:50:00;;;;;;;1.20;1.10;;;13.20;93.80;;;;;;5075849;28;20923;-29
2024/03/16 16:52:29;;;;;;;3.07;1.70;;;13.20;94.00;;;;;;5097507;28;21407;-29
2024/03/16 16:54:55;;;;;;;2.77;1.60;;;13.20;94.10;;;;;;5080385;28;20428;-26
2024/03/16 16:57:21;;;;;;;4.67;2.67;;;13.20;94.40;;;;;;5080396;28;20452;-28
2024/03/16 16:59:47;;;;;;;3.47;1.70;;;13.20;94.30;;;;;;5062850;28;20440;-28
2024/03/16 17:02:13;;;;;;;2.37;1.53;;;13.20;94.10;;;;;;5098958;28;20467;-25
2024/03/16 17:04:39;;;;;;;4.03;1.80;;;13.20;94.50;;;;;;5099625;28;20444;-25
2024/03/16 17:07:07;;;;;;;4.17;1.70;;;13.20;95.10;;;;;;5074644;28;20456;-25